Decoded Metar for LFRN (RENNES in FRANCE) (IATA:RNS) | Meteo·Mobile Aviation Weather
aviador You're here:

LFRN Decoded Metar

RENNES in FRANCE
Report Time2020-02-23 11:00:00
UTC Time2020-02-23 11:17:11
Flight Rules mvfr MVFR
Wind220° at 16 kt
W.Decomp.*RWY 28: 8.5 kt HW 13.6 kt LCW
RWY 14: 2.2 kt HW 15.8 kt RCW
Visibility9999 m
Phenomena:Drizzle
Clouds:Broken 004 Hf
Overcast 012 Hf
Expected CloudBase > 800 ft AGL from Temp-Dew spread
Ceiling1,200 ft
Temp13°C (ISA -2)
Dew Point11°C (88% RH)
AAT7.6°C
QNH1027 hPa
Density Alt-384 ft
Elevation121 ft
Report Wrong Elevation
Raw Report
LFRN 231100Z AUTO 22016KT 9999 OVC012 13/11 Q1027 TEMPO 4000 DZ
BKN004 BECMG 23015G25KT=

Extra information for LFRN:More info

Metar Taf Metar & Taf Last 4 Metars F.Rules Stats Wind Profile Meteogram Temp Stats Airport Information Weather charts Add Link Nearby VenuesMetar ALERT Operation Metar Decoded Social comments